Littleriver, California
Current Conditions -  °F | °C
As of 7:56 PM on Saturday 22 Nov 2014 (Local Time) from KUKI Reporting Station
Clear Clear  
Wind Chill: 54°   Ceiling: Unl
Heat Index: 54°   Visibility: 10mi
Dew Point: 47°   Wind: 3mph
Humidity: 77%   Direction: 30°NNE
Pressure: 30.22"   Gusts: NA
Location:  39.2639°N, 123.761°W
Report Text: KUKI 230256Z AUTO 03003KT 10SM CLR 12/08 A3022 RMK AO2 SLP230 T01220083 53020
Loading
Personal Weather Stations






























Interactive Weather Map New forecast layout! Learn more

10-Day Weather Forecast

Advertisements
Track Severe Weather on mobile